• Join FlightAware (Why Join?)
  • Login
  • US Flag 
04:21AM EDT


 

Airport Tracker/Info


-or-


 

Live Flight TrackerFlight Track Log ✈ SFH533 ✈ 21-Jun-2013 ✈ KEVB - KPDK

Flight Track Log - Related Links

Times and Time Zones

All times are in EDT time to prevent confusion due to time zone crossing. See the SFH533 flight status page for this flight to view local times or setup timezone preferences in your user account.

Time Position Orientation Groundspeed Altitude Reporting Facility
EDT Latitude Longitude Course Direction KTS MPH feet Rate Location/Type
01:39PM 29.0717 -80.9183 67° East 137 158 1,500  Level Jacksonville Center
01:40PM 29.1047 -80.8939 33° Northeast 189 217 3,200 1,980 Climbing Jacksonville Center
01:41PM 29.1553 -80.9214 33° Northeast 192 221 5,600 2,160 Climbing Jacksonville Center
01:42PM 29.2036 -80.9467 335° Northwest 191 220 7,700 1,980 Climbing Jacksonville Center
01:43PM 29.2522 -80.9719 336° Northwest 193 222 9,700 1,440 Climbing Jacksonville Center
01:44PM 29.3133 -81.0231 324° Northwest 219 252 11,000 540 Climbing Jacksonville Center
01:45PM 29.3725 -81.0647 328° Northwest 253 291 11,000 720 Level Jacksonville Center
01:46PM 29.4378 -81.1161 326° Northwest 284 327 12,500 1,800 Climbing Jacksonville Center
01:47PM 29.4803 -81.1533 323° Northwest 232 267 14,700 1,920 Climbing Jacksonville Center
01:48PM 29.5267 -81.1931 323° Northwest 218 251 16,400 1,500 Climbing Jacksonville Center
01:49PM 29.5731 -81.2353 322° Northwest 207 238 17,700 1,140 Climbing Jacksonville Center
01:50PM 29.6256 -81.2631 335° Northwest 207 238 18,700 1,140 Climbing Jacksonville Center
01:51PM 29.6825 -81.2981 332° Northwest 218 251 20,000 1,260 Climbing Jacksonville Center
01:52PM 29.7372 -81.3356 329° Northwest 223 257 21,200 1,140 Climbing Jacksonville Center
01:53PM 29.7919 -81.3706 331° Northwest 228 262 22,300 1,080 Climbing Jacksonville Center
01:54PM 29.8508 -81.4056 333° Northwest 233 268 23,400 1,020 Climbing Jacksonville Center
01:55PM 29.9158 -81.4381 337° Northwest 240 276 24,400 900 Climbing Jacksonville Center
01:56PM 29.9808 -81.4706 337° Northwest 250 288 25,300 900 Climbing Jacksonville Center
01:57PM 30.0500 -81.4983 341° North 255 293 26,300 840 Climbing Jacksonville Center
01:58PM 30.1214 -81.5261 341° North 261 300 27,000 300 Climbing Jacksonville Center
01:59PM 30.2011 -81.5564 342° North 279 321 27,000  Level Jacksonville Center
02:00PM 30.2869 -81.5911 341° North 300 345 27,000  Level Jacksonville Center
02:01PM 30.3750 -81.6283 340° North 320 368 27,000 360 Level Jacksonville Center
02:02PM 30.4589 -81.6611 341° North 333 383 27,800 1,200 Climbing Jacksonville Center
02:03PM 30.5469 -81.7011 339° North 321 369 29,500 1,380 Climbing Jacksonville Center
02:04PM 30.6225 -81.7289 342° North 300 345 30,600 960 Climbing Jacksonville Center
02:05PM 30.6936 -81.7572 341° North 279 321 31,500 840 Climbing Jacksonville Center
02:06PM 30.7650 -81.7878 340° North 274 315 32,300 600 Climbing Jacksonville Center
02:07PM 30.8383 -81.8183 340° North 274 315 32,800 300 Climbing Jacksonville Center
02:08PM 30.9139 -81.8611 334° Northwest 279 321 33,000 60 Climbing Jacksonville Center
02:09PM 30.9936 -81.9086 333° Northwest 294 338 33,000  Level Jacksonville Center
02:10PM 31.0753 -81.9564 333° Northwest 312 359 33,000  Level Jacksonville Center
02:11PM 31.1592 -82.0064 333° Northwest 334 384 33,000  Level Jacksonville Center
02:12PM 31.2450 -82.0542 335° Northwest 334 384 33,000  Level Jacksonville Center
02:13PM 31.3289 -82.1044 333° Northwest 340 391 33,000  Level Jacksonville Center
02:14PM 31.4147 -82.1525 334° Northwest 333 383 33,000  Level Jacksonville Center
02:15PM 31.4986 -82.2056 332° Northwest 333 383 33,000  Level Jacksonville Center
02:16PM 31.5825 -82.2561 333° Northwest 333 383 33,000  Level Jacksonville Center
02:17PM 31.6600 -82.2969 336° Northwest 333 383 33,000  Level Jacksonville Center
02:19PM 31.8486 -82.4056 334° Northwest 345 397 33,000  Level Atlanta Center
02:20PM 31.9325 -82.4556 333° Northwest 345 397 33,000  Level Atlanta Center
02:21PM 32.0167 -82.5081 332° Northwest 345 397 33,000  Level Atlanta Center
02:22PM 32.1031 -82.5581 334° Northwest 345 397 33,000 -360 Level Atlanta Center
02:23PM 32.1892 -82.6081 334° Northwest 345 397 32,300 -1,140 Descending Atlanta Center
02:24PM 32.2775 -82.6606 333° Northwest 345 397 30,800 -1,500 Descending Atlanta Center
02:25PM 32.3678 -82.7158 333° Northwest 351 404 29,400 -1,500 Descending Atlanta Center
02:26PM 32.4600 -82.7686 334° Northwest 356 410 27,900 -1,500 Descending Atlanta Center
02:27PM 32.5400 -82.8167 333° Northwest 356 410 26,500 -1,500 Descending Atlanta Center
02:28PM 32.6219 -82.8897 323° Northwest 361 415 25,000 -1,200 Descending Atlanta Center
02:29PM 32.7106 -82.9772 320° Northwest 371 427 24,100 -540 Descending Atlanta Center
02:30PM 32.7864 -83.0556 319° Northwest 376 433 24,000 -360 Descending Atlanta Center
02:31PM 32.8494 -83.1192 320° Northwest 354 407 23,400 -840 Descending Atlanta Center
02:32PM 32.9250 -83.1975 319° Northwest 354 407 22,400 -1,200 Descending Atlanta Center
02:33PM 33.0133 -83.2833 321° Northwest 366 421 21,000 -1,560 Descending Atlanta Center
02:34PM 33.0889 -83.3669 317° Northwest 366 421 19,300 -1,920 Descending Atlanta Center
02:35PM 33.1686 -83.4456 320° Northwest 371 427 17,200 -2,280 Descending Atlanta Center
02:36PM 33.2442 -83.5222 320° Northwest 359 413 14,800 -2,160 Descending Atlanta Center
02:37PM 33.3114 -83.5889 320° Northwest 359 413 12,900 -2,220 Descending Atlanta Center
02:38PM 33.3667 -83.6500 317° Northwest 342 394 11,100 -1,320 Descending Atlanta TRACON
02:39PM 33.4494 -83.7175 326° Northwest 321 369 10,300 -1,440 Descending Atlanta Center
02:40PM 33.5183 -83.7722 326° Northwest 300 345 7,800 -2,880 Descending Atlanta Center
02:41PM 33.5853 -83.8194 330° Northwest 280 322 4,600 -1,920 Descending Atlanta Center
02:42PM 33.6458 -83.8692 326° Northwest 273 314 4,000 -300 Descending Atlanta Center
02:43PM 33.6856 -83.9464 302° West 268 308 4,000 -360 Level Atlanta Center
02:45PM 33.7398 -84.0475 345° North  Level Estimated
02:45PM 33.7714 -84.1039 345° North 273 314 3,000  Level Atlanta Center
02:46PM 33.8000 -84.1500 307° West 267 307 3,000 -300 Level Atlanta TRACON
02:47PM 33.8167 -84.2167 287° West 221 254 2,600 -240 Descending Atlanta TRACON
02:48PM 33.8333 -84.2833 287° West 176 203 2,600 -480 Level Atlanta TRACON
02:49PM 33.8500 -84.3167 301° West 134 154 1,700 -1,020 Descending Atlanta TRACON
02:51PM 33.8667 -84.3000 220° Southwest  Level FlightAware Approximate
02:58PM 33.8756 -84.3020 220° Southwest  Level Estimated